Time;durP1;ratioP1;P1;durP2;ratioP2;P2;SDS_P1;SDS_P2;PMS_P1;PMS_P2;Temp;Humidity;BMP_temperature;BMP_pressure;BME280_temperature;BME280_humidity;BME280_pressure;Samples;Min_cycle;Max_cycle;Signal;HPM_P1;HPM_P2
2024/02/01 00:05:20;;;;;;;22.40;17.90;;;;;;;6.51;70.54;97398.81;5026139;28;20599;-66
2024/02/01 00:07:46;;;;;;;22.83;18.20;;;;;;;6.46;70.99;97395.41;5030281;28;20877;-67
2024/02/01 00:10:11;;;;;;;24.60;18.77;;;;;;;6.29;71.02;97394.75;5026212;28;20494;-68
2024/02/01 00:12:37;;;;;;;27.30;21.30;;;;;;;6.49;70.59;97390.16;5026582;28;20185;-68
2024/02/01 00:15:02;;;;;;;25.73;20.37;;;;;;;6.27;71.05;97392.13;5027278;28;20177;-68
2024/02/01 00:17:28;;;;;;;26.63;19.33;;;;;;;6.13;72.16;97389.69;5027208;28;20246;-69
2024/02/01 00:19:53;;;;;;;28.10;19.00;;;;;;;6.34;71.53;97385.13;5027816;28;20616;-68
2024/02/01 00:22:18;;;;;;;27.30;17.83;;;;;;;6.31;72.10;97387.78;5026415;28;20213;-68
2024/02/01 00:24:44;;;;;;;24.17;18.57;;;;;;;6.25;72.04;97380.00;5026953;28;20446;-68
2024/02/01 00:27:09;;;;;;;21.20;17.37;;;;;;;6.18;72.10;97384.41;5026564;28;20582;-67
2024/02/01 00:29:35;;;;;;;23.30;17.83;;;;;;;6.04;72.97;97376.75;5026403;28;20206;-67
2024/02/01 00:32:00;;;;;;;25.37;19.60;;;;;;;6.23;72.58;97374.78;5026384;28;20203;-68
2024/02/01 00:34:25;;;;;;;22.63;18.07;;;;;;;6.40;71.97;97382.44;5026474;28;20199;-69
2024/02/01 00:36:51;;;;;;;22.67;18.37;;;;;;;6.54;72.08;97366.63;5026749;28;20187;-68
2024/02/01 00:39:16;;;;;;;26.33;19.37;;;;;;;6.46;71.99;97369.31;5026291;28;20174;-69
2024/02/01 00:41:42;;;;;;;23.30;17.97;;;;;;;6.52;72.08;97382.31;5026436;28;20176;-68
2024/02/01 00:44:07;;;;;;;20.70;16.93;;;;;;;6.43;71.95;97385.03;5026171;28;20282;-68
2024/02/01 00:46:33;;;;;;;22.73;18.03;;;;;;;6.24;73.45;97396.53;5026189;28;20606;-69
2024/02/01 00:48:58;;;;;;;22.60;18.23;;;;;;;6.30;72.84;97399.06;5026448;28;20206;-68
2024/02/01 00:51:23;;;;;;;25.43;18.00;;;;;;;6.39;72.63;97393.75;5026216;28;20634;-67
2024/02/01 00:53:49;;;;;;;22.63;17.80;;;;;;;6.51;72.21;97391.00;5024941;28;20229;-68
2024/02/01 00:56:14;;;;;;;24.00;17.80;;;;;;;6.28;73.25;97382.56;5026261;28;20613;-68
2024/02/01 00:58:39;;;;;;;24.50;16.20;;;;;;;6.41;72.55;97381.56;5026389;28;20172;-69
2024/02/01 01:01:05;;;;;;;23.60;19.97;;;;;;;6.47;72.82;97397.16;5026011;28;20174;-67
2024/02/01 01:03:30;;;;;;;26.10;18.93;;;;;;;6.34;72.58;97391.19;5026158;28;20535;-68
2024/02/01 01:05:55;;;;;;;24.20;18.47;;;;;;;6.35;72.93;97385.13;5026445;28;20203;-68
2024/02/01 01:08:21;;;;;;;23.33;17.70;;;;;;;6.33;73.03;97383.38;5026327;28;20203;-68
2024/02/01 01:10:46;;;;;;;21.23;18.13;;;;;;;6.42;72.50;97393.69;5026793;28;20180;-67
2024/02/01 01:13:12;;;;;;;24.40;17.67;;;;;;;6.35;72.88;97390.31;5025972;28;20202;-66
2024/02/01 01:15:37;;;;;;;23.13;18.40;;;;;;;6.42;72.57;97391.09;5026278;28;20178;-69
2024/02/01 01:18:03;;;;;;;21.10;17.03;;;;;;;6.40;72.45;97390.25;5026270;28;20178;-68
2024/02/01 01:20:29;;;;;;;26.70;19.17;;;;;;;6.39;72.00;97388.53;5026059;28;20327;-68
2024/02/01 01:22:54;;;;;;;23.30;19.07;;;;;;;6.36;72.09;97391.19;5025870;28;20266;-67
2024/02/01 01:25:21;;;;;;;26.67;18.40;;;;;;;6.51;71.60;97383.16;5025730;28;20175;-67
2024/02/01 01:27:46;;;;;;;25.07;17.70;;;;;;;6.53;71.96;97390.97;5025372;28;20539;-67
2024/02/01 01:30:12;;;;;;;21.70;18.27;;;;;;;6.51;71.61;97387.53;5025270;28;20433;-69
2024/02/01 01:32:37;;;;;;;22.97;16.77;;;;;;;6.54;71.86;97382.25;5025769;28;20168;-68
2024/02/01 01:35:03;;;;;;;24.67;19.03;;;;;;;6.33;72.58;97375.56;5025972;28;20201;-69
2024/02/01 01:37:28;;;;;;;24.00;16.80;;;;;;;6.36;72.14;97378.16;5025744;28;20189;-68
2024/02/01 01:39:54;;;;;;;24.60;18.30;;;;;;;6.50;72.22;97375.38;5025283;28;20186;-67
2024/02/01 01:42:19;;;;;;;23.10;17.47;;;;;;;6.56;72.00;97381.38;5025063;28;20799;-67
2024/02/01 01:44:44;;;;;;;26.60;19.00;;;;;;;6.46;72.33;97382.38;5025101;28;20282;-69
2024/02/01 01:47:11;;;;;;;21.57;18.60;;;;;;;6.56;72.05;97370.94;5024898;28;20736;-69
2024/02/01 01:49:36;;;;;;;22.30;17.47;;;;;;;6.52;72.11;97371.88;5025163;28;20167;-67
2024/02/01 01:52:02;;;;;;;24.93;18.67;;;;;;;6.52;72.74;97373.59;5025472;28;20411;-67
2024/02/01 01:54:31;;;;;;;24.47;17.73;;;;;;;6.69;72.46;97361.22;5027714;28;20223;-68
2024/02/01 01:56:58;;;;;;;24.20;18.70;;;;;;;6.57;72.29;97356.16;5032883;28;20178;-69
2024/02/01 01:59:24;;;;;;;22.40;17.20;;;;;;;6.54;72.80;97346.66;5038901;28;20437;-69
2024/02/01 02:01:51;;;;;;;24.00;16.73;;;;;;;6.46;73.02;97347.63;5030073;28;20418;-68
2024/02/01 02:04:17;;;;;;;24.30;17.37;;;;;;;6.45;72.70;97341.53;5025670;28;20203;-69
2024/02/01 02:06:43;;;;;;;22.43;17.43;;;;;;;6.19;74.45;97349.66;5025384;28;20461;-66
2024/02/01 02:09:12;;;;;;;25.40;16.20;;;;;;;6.24;73.99;97360.06;5026208;28;20229;-68
2024/02/01 02:11:44;;;;;;;23.73;17.70;;;;;;;6.44;73.70;97350.22;5029001;28;20417;-68
2024/02/01 02:14:14;;;;;;;22.20;16.60;;;;;;;6.25;74.54;97348.72;5028703;28;20921;-67
2024/02/01 02:16:40;;;;;;;21.70;16.93;;;;;;;6.38;73.85;97346.81;5028845;28;20406;-68
2024/02/01 02:19:09;;;;;;;26.77;17.93;;;;;;;6.49;73.39;97352.78;5028842;28;20410;-68
2024/02/01 02:21:55;;;;;;;25.20;16.90;;;;;;;6.06;74.98;97351.53;5028539;28;20183;-68
2024/02/01 02:24:20;;;;;;;28.60;16.83;;;;;;;6.33;74.10;97357.31;5028376;28;20480;-69
2024/02/01 02:26:47;;;;;;;21.37;16.20;;;;;;;6.41;73.76;97350.28;5028693;28;20836;-69
2024/02/01 02:29:16;;;;;;;25.77;18.10;;;;;;;6.43;73.88;97353.72;5028667;28;20178;-68
2024/02/01 02:31:42;;;;;;;20.43;15.73;;;;;;;6.37;73.85;97348.56;5028568;28;21200;-69
2024/02/01 02:34:07;;;;;;;20.50;16.50;;;;;;;6.42;73.87;97343.31;5028485;28;20434;-68
2024/02/01 02:36:32;;;;;;;20.97;17.07;;;;;;;6.56;73.28;97359.66;5028724;28;20188;-68
2024/02/01 02:38:58;;;;;;;20.73;16.77;;;;;;;6.48;74.23;97351.06;5028879;28;20175;-69
2024/02/01 02:41:23;;;;;;;19.70;15.93;;;;;;;6.56;73.97;97360.50;5029254;28;20194;-68
2024/02/01 02:43:49;;;;;;;21.50;15.90;;;;;;;6.25;74.99;97357.41;5028967;28;20200;-67
2024/02/01 02:46:15;;;;;;;23.80;16.20;;;;;;;5.98;76.79;97368.16;5029444;28;20214;-68
2024/02/01 02:48:40;;;;;;;23.23;17.93;;;;;;;6.29;75.51;97368.69;5029567;28;20237;-67
2024/02/01 02:51:06;;;;;;;22.67;16.13;;;;;;;6.30;75.56;97363.41;5030257;28;20179;-68
2024/02/01 02:53:31;;;;;;;18.37;16.30;;;;;;;6.43;75.04;97361.56;5032303;28;20803;-69
2024/02/01 02:56:00;;;;;;;23.53;16.73;;;;;;;6.41;75.50;97358.09;5038618;28;20979;-68
2024/02/01 02:58:25;;;;;;;23.57;17.57;;;;;;;6.60;75.09;97352.66;5038014;28;20515;-68
2024/02/01 03:00:51;;;;;;;23.47;16.63;;;;;;;6.70;74.59;97349.03;5039263;28;20536;-68
2024/02/01 03:03:16;;;;;;;20.40;16.77;;;;;;;6.47;75.86;97350.22;5039092;28;20601;-67
2024/02/01 03:05:42;;;;;;;20.67;15.00;;;;;;;6.57;75.51;97346.59;5041882;28;20198;-68
2024/02/01 03:08:09;;;;;;;20.17;15.17;;;;;;;6.37;76.25;97353.78;5041173;28;20192;-70
2024/02/01 03:10:37;;;;;;;20.67;16.07;;;;;;;6.49;75.82;97363.22;5040653;28;20294;-68
2024/02/01 03:13:05;;;;;;;24.70;16.77;;;;;;;6.41;76.22;97357.25;5038873;28;20422;-68
2024/02/01 03:15:32;;;;;;;25.50;17.60;;;;;;;6.49;75.85;97358.84;5030978;28;20433;-69
2024/02/01 03:17:57;;;;;;;19.70;15.60;;;;;;;6.43;76.22;97358.94;5028627;28;20413;-68
2024/02/01 03:20:23;;;;;;;21.03;14.77;;;;;;;6.37;76.51;97374.66;5028001;28;20406;-68
2024/02/01 03:22:54;;;;;;;18.50;15.90;;;;;;;6.62;75.47;97371.75;5026192;28;20253;-68
2024/02/01 03:25:28;;;;;;;18.73;15.33;;;;;;;6.49;76.01;97384.94;5027558;28;20230;-69
2024/02/01 03:28:00;;;;;;;20.40;15.57;;;;;;;6.25;76.63;97378.25;5027122;28;20539;-67
2024/02/01 03:30:30;;;;;;;19.30;15.30;;;;;;;6.39;76.61;97383.31;5026873;28;20419;-67
2024/02/01 03:32:56;;;;;;;18.40;14.80;;;;;;;6.24;77.30;97378.28;5027014;28;20416;-69
2024/02/01 03:35:23;;;;;;;19.43;16.20;;;;;;;5.96;78.30;97378.56;5027190;28;20413;-68
2024/02/01 03:37:49;;;;;;;18.77;16.57;;;;;;;6.23;77.57;97376.56;5027276;28;20420;-68
2024/02/01 03:40:18;;;;;;;23.87;16.73;;;;;;;6.03;78.38;97382.00;5026991;28;20440;-69
2024/02/01 03:42:47;;;;;;;25.37;15.53;;;;;;;6.10;78.49;97379.28;5026806;28;20784;-67
2024/02/01 03:45:13;;;;;;;20.47;13.73;;;;;;;6.37;77.84;97387.69;5027144;28;20556;-68
2024/02/01 03:47:39;;;;;;;17.57;14.70;;;;;;;6.51;77.07;97388.38;5007443;28;20475;-69
2024/02/01 03:50:08;;;;;;;18.03;15.00;;;;;;;6.59;77.58;97385.72;5007229;28;20430;-68
2024/02/01 03:52:34;;;;;;;22.33;15.90;;;;;;;6.64;77.92;97390.84;5006837;28;20176;-67
2024/02/01 03:55:00;;;;;;;21.83;14.83;;;;;;;6.61;77.70;97401.31;5006729;28;20439;-68
2024/02/01 03:57:26;;;;;;;21.50;16.00;;;;;;;6.79;77.69;97401.94;5006918;28;20796;-68
2024/02/01 03:59:52;;;;;;;18.63;14.33;;;;;;;6.89;77.39;97394.00;5006762;28;20184;-69
2024/02/01 04:02:18;;;;;;;25.13;14.83;;;;;;;6.92;77.40;97394.84;5006958;28;20176;-68
2024/02/01 04:04:47;;;;;;;22.73;14.93;;;;;;;6.92;77.80;97388.72;5020404;28;20442;-69
2024/02/01 04:07:16;;;;;;;16.90;14.33;;;;;;;6.99;77.20;97391.25;5026180;28;20203;-67
2024/02/01 04:09:44;;;;;;;19.57;15.70;;;;;;;7.08;76.97;97390.25;5026677;28;20410;-69
2024/02/01 04:12:11;;;;;;;20.77;15.20;;;;;;;7.17;77.13;97399.72;5026784;28;20973;-68
2024/02/01 04:14:36;;;;;;;21.00;16.43;;;;;;;7.20;77.38;97392.72;5026171;28;20925;-68
2024/02/01 04:17:02;;;;;;;25.60;17.40;;;;;;;7.18;76.76;97383.16;5026451;28;20415;-69
2024/02/01 04:19:27;;;;;;;19.00;15.00;;;;;;;7.22;76.42;97387.44;5026313;28;20179;-68
2024/02/01 04:21:53;;;;;;;23.37;15.23;;;;;;;7.20;76.99;97371.81;5027061;28;20225;-67
2024/02/01 04:24:18;;;;;;;19.90;14.80;;;;;;;7.34;76.73;97358.53;5026579;28;20315;-67
2024/02/01 04:26:43;;;;;;;20.50;15.00;;;;;;;7.29;76.81;97356.91;5026302;28;20211;-68
2024/02/01 04:29:10;;;;;;;24.00;15.10;;;;;;;7.36;77.14;97354.16;5026066;28;20558;-68
2024/02/01 04:31:35;;;;;;;29.80;15.60;;;;;;;7.37;76.17;97345.44;5025386;28;20218;-67
2024/02/01 04:34:01;;;;;;;24.93;17.27;;;;;;;7.30;76.49;97340.31;5025858;28;20891;-67
2024/02/01 04:36:27;;;;;;;23.00;15.80;;;;;;;7.17;77.22;97335.31;5025745;28;20560;-67
2024/02/01 04:38:53;;;;;;;22.43;17.17;;;;;;;7.29;76.62;97346.44;5025348;28;20188;-67
2024/02/01 04:41:18;;;;;;;22.63;17.87;;;;;;;7.24;76.64;97349.13;5025893;28;20901;-68
2024/02/01 04:43:44;;;;;;;21.80;16.20;;;;;;;7.22;76.67;97354.38;5025934;28;20195;-67
2024/02/01 04:46:12;;;;;;;21.23;16.90;;;;;;;7.10;77.67;97361.53;5025666;28;20180;-67
2024/02/01 04:48:38;;;;;;;25.00;16.17;;;;;;;7.17;77.70;97364.03;5028992;28;20183;-67
2024/02/01 04:51:03;;;;;;;24.53;16.70;;;;;;;7.25;77.69;97360.44;5025368;28;20437;-67
2024/02/01 04:53:29;;;;;;;24.33;16.37;;;;;;;7.11;77.21;97350.19;5025607;28;20698;-67
2024/02/01 04:55:55;;;;;;;19.13;15.00;;;;;;;7.14;77.80;97348.41;5025711;28;20179;-67
2024/02/01 04:58:20;;;;;;;21.93;15.67;;;;;;;7.15;77.71;97344.91;5026137;28;20172;-68
2024/02/01 05:00:52;;;;;;;23.10;17.07;;;;;;;7.22;77.41;97356.97;5024198;28;20178;-66
2024/02/01 05:03:17;;;;;;;22.50;17.23;;;;;;;7.17;77.29;97355.34;5025918;28;20199;-67
2024/02/01 05:05:47;;;;;;;18.97;15.60;;;;;;;7.09;78.09;97346.78;5026344;28;20425;-68
2024/02/01 05:08:13;;;;;;;20.90;16.77;;;;;;;7.17;76.69;97348.34;5025511;28;20223;-68
2024/02/01 05:10:43;;;;;;;28.13;17.70;;;;;;;7.13;77.73;97346.66;5024358;28;20418;-66
2024/02/01 05:13:11;;;;;;;20.47;14.93;;;;;;;7.13;77.84;97338.84;5025519;28;20573;-67
2024/02/01 05:15:36;;;;;;;23.37;16.40;;;;;;;7.20;77.13;97331.78;5025824;28;20421;-67
2024/02/01 05:18:04;;;;;;;23.37;17.00;;;;;;;7.18;77.15;97336.16;5025683;28;20949;-67
2024/02/01 05:20:30;;;;;;;23.70;15.57;;;;;;;7.15;77.39;97334.47;5025260;28;20849;-68
2024/02/01 05:22:55;;;;;;;19.33;15.53;;;;;;;7.19;77.09;97330.94;5025169;28;20512;-67
2024/02/01 05:25:23;;;;;;;24.60;16.93;;;;;;;7.15;77.37;97323.16;5025570;28;20538;-67
2024/02/01 05:27:52;;;;;;;21.60;16.33;;;;;;;7.25;76.85;97331.72;5021572;28;20748;-67
2024/02/01 05:30:21;;;;;;;21.97;16.43;;;;;;;7.27;76.82;97329.94;5017127;28;20488;-68
2024/02/01 05:32:53;;;;;;;24.20;17.47;;;;;;;7.09;77.08;97329.34;5004369;28;20439;-66
2024/02/01 05:35:27;;;;;;;18.33;16.23;;;;;;;7.16;77.18;97340.56;5008821;28;20926;-67
2024/02/01 05:37:53;;;;;;;21.67;16.43;;;;;;;7.31;76.56;97331.63;5025320;28;20430;-66
2024/02/01 05:40:18;;;;;;;21.80;17.30;;;;;;;7.19;77.01;97325.69;5021720;28;20423;-68
2024/02/01 05:42:44;;;;;;;25.80;16.83;;;;;;;7.28;76.59;97332.53;5024818;28;20927;-67
2024/02/01 05:45:10;;;;;;;23.97;17.20;;;;;;;7.22;76.83;97341.31;5023856;28;20679;-66
2024/02/01 05:47:36;;;;;;;19.33;14.80;;;;;;;7.24;76.80;97338.69;5021634;28;20195;-66
2024/02/01 05:50:01;;;;;;;21.30;16.83;;;;;;;7.32;76.95;97335.94;5028811;28;20525;-67
2024/02/01 05:52:27;;;;;;;21.97;16.30;;;;;;;7.25;76.50;97332.56;5024595;28;20267;-66
2024/02/01 05:54:55;;;;;;;23.60;17.10;;;;;;;7.32;76.59;97335.94;5028818;28;20646;-66
2024/02/01 05:57:21;;;;;;;24.40;17.03;;;;;;;7.31;76.21;97335.09;5012608;28;20255;-67
2024/02/01 05:59:46;;;;;;;21.07;15.90;;;;;;;7.28;77.31;97326.47;5012747;28;20522;-67
2024/02/01 06:02:11;;;;;;;19.83;15.70;;;;;;;7.35;76.11;97326.34;5007461;28;20219;-68
2024/02/01 06:04:37;;;;;;;21.47;15.60;;;;;;;7.35;76.77;97322.88;5016805;28;21051;-67
2024/02/01 06:07:04;;;;;;;18.83;15.37;;;;;;;7.39;76.49;97317.56;5008436;28;20208;-67
2024/02/01 06:09:31;;;;;;;25.87;16.43;;;;;;;7.38;75.83;97317.59;5010872;28;20270;-67
2024/02/01 06:11:56;;;;;;;18.67;15.43;;;;;;;7.41;76.34;97310.53;5015895;28;20959;-67
2024/02/01 06:14:21;;;;;;;19.13;16.33;;;;;;;7.27;77.34;97309.91;5017046;28;20623;-65
2024/02/01 06:16:47;;;;;;;19.53;14.90;;;;;;;7.37;76.95;97311.50;5015451;28;20180;-67
2024/02/01 06:19:12;;;;;;;21.67;14.57;;;;;;;7.35;75.92;97300.22;5014761;28;20179;-67
2024/02/01 06:21:38;;;;;;;26.17;18.20;;;;;;;7.46;75.96;97309.63;5014681;28;20278;-67
2024/02/01 06:24:04;;;;;;;24.83;16.43;;;;;;;7.41;75.96;97305.31;5015308;28;20219;-68
2024/02/01 06:26:30;;;;;;;20.87;15.87;;;;;;;7.44;75.95;97301.81;5015859;28;20619;-67
2024/02/01 06:29:00;;;;;;;18.07;14.80;;;;;;;7.40;76.06;97307.97;5014109;28;20442;-67
2024/02/01 06:31:25;;;;;;;23.07;17.23;;;;;;;7.38;76.33;97309.75;5010520;28;20188;-67
2024/02/01 06:33:51;;;;;;;21.20;17.17;;;;;;;7.36;76.88;97317.59;5014794;28;20462;-67
2024/02/01 06:36:23;;;;;;;22.07;16.63;;;;;;;7.38;76.66;97314.97;5017785;28;20203;-68
2024/02/01 06:39:09;;;;;;;26.93;17.77;;;;;;;7.35;76.70;97315.88;5027393;28;20732;-68
2024/02/01 06:41:47;;;;;;;12.13;9.40;;;;;;;9.13;88.34;97324.59;5020688;28;20414;-67
2024/02/01 06:44:26;;;;;;;19.93;14.97;;;;;;;10.37;78.74;97310.94;5017986;28;20445;-67
2024/02/01 06:49:29;;;;;;;18.17;14.93;;;;;;;8.33;73.09;97328.03;5024998;28;20943;-66
2024/02/01 06:52:02;;;;;;;20.40;16.20;;;;;;;7.99;74.40;97326.94;5022404;28;20446;-67
2024/02/01 06:54:39;;;;;;;22.30;15.47;;;;;;;7.63;76.20;97331.09;5025535;28;20426;-66
2024/02/01 06:57:13;;;;;;;25.40;16.90;;;;;;;7.42;76.54;97324.50;5019790;28;20444;-67
2024/02/01 07:03:01;;;;;;;18.73;15.27;;;;;;;7.35;77.25;97313.28;5012955;28;20442;-69
2024/02/01 07:05:58;;;;;;;25.00;16.10;;;;;;;7.26;77.25;97323.00;5013719;28;20445;-67
2024/02/01 07:08:13;;;;;;;33.53;16.00;;;;;;;7.26;77.69;97333.44;5016267;28;20467;-67
2024/02/01 07:10:47;;;;;;;23.77;15.37;;;;;;;7.24;77.45;97330.00;5013146;28;20427;-67
2024/02/01 07:13:24;;;;;;;25.80;17.80;;;;;;;7.28;77.91;97335.16;5011295;28;20826;-67
2024/02/01 07:15:53;;;;;;;27.63;19.23;;;;;;;7.19;78.02;97341.38;5014754;28;20480;-67
2024/02/01 07:18:30;;;;;;;26.70;16.77;;;;;;;7.10;78.61;97340.66;5033872;28;20441;-67
2024/02/01 07:20:56;;;;;;;30.33;20.10;;;;;;;7.33;77.90;97346.38;5032562;28;20464;-68
2024/02/01 07:26:02;;;;;;;28.00;18.77;;;;;;;7.19;78.81;97362.25;5010961;28;20778;-68
2024/02/01 07:58:37;;;;;;;24.70;19.53;;;;;;;7.37;78.10;97421.19;5018905;28;20480;-68
2024/02/01 08:01:13;;;;;;;30.53;21.50;;;;;;;7.38;78.81;97414.19;5023361;28;20437;-69
2024/02/01 08:03:56;;;;;;;29.87;19.23;;;;;;;7.36;78.27;97414.22;5026877;28;21000;-67
2024/02/01 08:09:11;;;;;;;31.57;20.20;;;;;;;7.42;78.27;97380.19;5028015;28;20405;-69
2024/02/01 08:11:43;;;;;;;26.90;20.13;;;;;;;7.40;78.10;97368.91;5026895;28;20411;-69
2024/02/01 08:14:09;;;;;;;31.63;21.97;;;;;;;7.45;77.58;97373.19;5026940;28;20426;-67
2024/02/01 08:16:35;;;;;;;26.87;21.10;;;;;;;7.55;77.69;97373.00;5028229;28;20410;-68
2024/02/01 08:19:00;;;;;;;25.60;19.60;;;;;;;7.40;77.81;97378.47;5014675;28;20423;-67
2024/02/01 08:21:27;;;;;;;30.80;22.27;;;;;;;7.41;78.86;97374.97;5007151;28;20287;-69
2024/02/01 08:23:54;;;;;;;27.27;21.63;;;;;;;7.40;78.52;97375.88;5006649;28;20203;-68
2024/02/01 08:26:21;;;;;;;29.23;22.00;;;;;;;7.36;79.20;97374.19;5007353;28;20416;-68
2024/02/01 08:28:47;;;;;;;27.70;20.53;;;;;;;7.52;78.29;97385.25;5009237;28;20434;-67
2024/02/01 08:31:17;;;;;;;29.43;21.10;;;;;;;7.44;78.85;97382.78;5009886;28;20434;-68
2024/02/01 08:33:44;;;;;;;27.20;19.83;;;;;;;7.35;79.44;97373.34;5019493;28;21079;-67
2024/02/01 08:36:17;;;;;;;23.63;20.30;;;;;;;7.41;79.38;97381.06;5026163;28;20433;-68
2024/02/01 08:38:43;;;;;;;31.73;21.70;;;;;;;7.43;78.79;97386.25;5026019;28;20420;-68
2024/02/01 08:41:10;;;;;;;32.93;22.17;;;;;;;7.40;78.87;97383.72;5024123;28;20423;-67
2024/02/01 08:43:38;;;;;;;24.80;21.53;;;;;;;7.39;79.38;97387.19;5019853;28;20204;-69
2024/02/01 08:46:04;;;;;;;28.57;21.40;;;;;;;7.38;79.25;97377.63;5026056;28;20422;-69
2024/02/01 08:48:30;;;;;;;30.70;21.23;;;;;;;7.38;79.53;97382.88;5026288;28;20477;-66
2024/02/01 08:50:55;;;;;;;32.00;22.73;;;;;;;7.36;79.06;97382.03;5025621;28;20171;-67
2024/02/01 08:53:22;;;;;;;28.37;22.17;;;;;;;7.43;79.29;97378.44;5019171;28;20210;-70
2024/02/01 08:55:52;;;;;;;26.53;22.07;;;;;;;7.46;79.27;97374.91;5025603;28;20167;-68
2024/02/01 08:58:18;;;;;;;28.27;20.00;;;;;;;7.28;79.53;97381.28;5025648;28;21095;-69
2024/02/01 09:00:44;;;;;;;29.13;21.30;;;;;;;7.39;79.46;97392.41;5020709;28;20443;-69
2024/02/01 09:03:15;;;;;;;31.97;23.50;;;;;;;7.38;79.64;97383.72;5022557;28;20437;-70
2024/02/01 09:05:48;;;;;;;28.27;22.20;;;;;;;7.47;78.95;97392.31;5026218;28;20199;-68
2024/02/01 09:08:24;;;;;;;27.20;21.00;;;;;;;7.46;78.90;97390.56;5025567;28;20466;-68
2024/02/01 09:10:57;;;;;;;29.10;21.77;;;;;;;7.34;80.18;97396.84;5020676;28;20521;-68
2024/02/01 09:13:24;;;;;;;33.97;22.87;;;;;;;7.33;80.46;97393.38;5025361;28;21065;-68
2024/02/01 09:15:51;;;;;;;26.37;21.87;;;;;;;7.40;80.40;97396.75;5025417;28;20417;-68
2024/02/01 09:18:20;;;;;;;33.60;22.03;;;;;;;7.45;79.91;97402.78;5025048;28;20449;-67
2024/02/01 09:20:47;;;;;;;26.40;21.10;;;;;;;7.54;79.48;97409.63;5022893;28;20520;-68
2024/02/01 09:23:12;;;;;;;29.43;22.63;;;;;;;7.39;80.75;97405.47;5022901;28;20466;-66
2024/02/01 09:25:40;;;;;;;31.80;22.53;;;;;;;7.28;81.52;97412.63;5025338;28;20476;-66
2024/02/01 09:28:11;;;;;;;29.70;20.57;;;;;;;7.53;79.59;97413.09;5023748;28;20277;-69
2024/02/01 09:30:38;;;;;;;30.53;22.30;;;;;;;7.64;80.21;97419.03;5017799;28;20441;-68
2024/02/01 09:33:04;;;;;;;39.67;24.53;;;;;;;7.71;79.51;97422.41;5025196;28;20470;-68
2024/02/01 09:35:30;;;;;;;28.70;20.60;;;;;;;7.68;79.33;97420.72;5020463;28;20482;-69
2024/02/01 09:37:55;;;;;;;31.60;21.57;;;;;;;7.68;80.02;97412.88;5012052;28;20187;-68
2024/02/01 09:40:22;;;;;;;29.30;21.70;;;;;;;7.65;79.69;97418.13;5023732;28;20426;-68
2024/02/01 09:42:49;;;;;;;26.07;20.57;;;;;;;7.62;79.77;97408.59;5025661;28;20270;-68
2024/02/01 09:45:19;;;;;;;28.17;21.67;;;;;;;7.69;79.66;97417.19;5023923;28;20496;-69
2024/02/01 09:47:48;;;;;;;23.87;19.33;;;;;;;7.58;80.11;97416.50;5017840;28;21072;-67
2024/02/01 09:50:15;;;;;;;30.53;22.07;;;;;;;7.59;80.74;97420.84;5026043;28;20910;-67
2024/02/01 09:52:42;;;;;;;24.50;19.80;;;;;;;7.72;79.66;97413.66;5026419;28;20506;-69
2024/02/01 09:55:08;;;;;;;36.17;23.17;;;;;;;7.76;79.09;97412.72;5021620;28;20434;-68
2024/02/01 09:57:40;;;;;;;25.57;20.00;;;;;;;7.77;79.57;97412.72;5026189;28;20426;-69
2024/02/01 10:00:12;;;;;;;28.67;21.57;;;;;;;7.70;79.58;97426.78;5019614;28;20669;-68
2024/02/01 10:02:39;;;;;;;29.87;21.73;;;;;;;7.77;80.26;97430.13;5020801;28;20450;-70
2024/02/01 10:05:07;;;;;;;29.20;22.70;;;;;;;7.71;79.83;97432.84;5028000;28;20461;-69
2024/02/01 10:07:33;;;;;;;32.10;24.20;;;;;;;7.79;80.56;97436.19;5028261;28;20454;-69
2024/02/01 10:10:01;;;;;;;31.20;21.33;;;;;;;7.79;79.49;97437.03;5019189;28;20469;-69
2024/02/01 10:12:29;;;;;;;25.77;20.73;;;;;;;7.79;79.33;97437.03;5028947;28;20415;-69
2024/02/01 10:14:55;;;;;;;24.10;19.63;;;;;;;7.85;79.27;97442.19;5015244;28;20482;-69
2024/02/01 10:17:20;;;;;;;34.07;21.90;;;;;;;7.93;79.17;97438.59;5037924;28;20418;-68
2024/02/01 10:19:49;;;;;;;28.90;20.57;;;;;;;7.82;79.88;97434.41;5024865;28;20414;-68
2024/02/01 10:22:15;;;;;;;27.40;21.80;;;;;;;7.93;79.93;97433.34;5023718;28;20175;-68
2024/02/01 10:24:45;;;;;;;27.80;21.00;;;;;;;7.94;79.26;97433.34;5021802;28;21030;-69
2024/02/01 10:27:19;;;;;;;25.57;19.93;;;;;;;7.89;79.92;97434.28;5025219;28;20564;-68
2024/02/01 10:29:46;;;;;;;27.20;20.33;;;;;;;7.95;78.99;97435.06;5016661;28;20553;-68
2024/02/01 10:32:13;;;;;;;26.20;21.47;;;;;;;7.98;79.41;97429.75;5025417;28;20437;-68
2024/02/01 10:34:45;;;;;;;26.80;20.40;;;;;;;7.99;79.27;97423.66;5028960;28;21034;-68
2024/02/01 10:37:13;;;;;;;25.73;19.93;;;;;;;7.91;79.65;97416.84;5028111;28;20552;-68
2024/02/01 10:39:45;;;;;;;28.70;20.60;;;;;;;8.02;79.06;97415.75;5026310;28;20433;-68
2024/02/01 10:42:14;;;;;;;28.27;19.90;;;;;;;8.01;79.91;97416.66;5028185;28;20497;-68
2024/02/01 10:44:44;;;;;;;26.30;19.97;;;;;;;8.03;79.02;97409.66;5028123;28;20600;-67
2024/02/01 10:47:13;;;;;;;24.43;18.97;;;;;;;8.04;79.74;97420.97;5023614;28;21012;-68
2024/02/01 10:49:43;;;;;;;27.40;20.50;;;;;;;8.10;79.05;97413.00;5022520;28;20430;-68
2024/02/01 10:52:11;;;;;;;33.23;21.70;;;;;;;8.12;78.83;97411.22;5028042;28;20826;-68
2024/02/01 10:54:37;;;;;;;27.10;19.97;;;;;;;8.23;78.75;97401.44;5028345;28;20438;-68
2024/02/01 10:57:06;;;;;;;23.97;19.30;;;;;;;8.19;78.62;97396.28;5027289;28;20441;-68
2024/02/01 10:59:33;;;;;;;26.33;18.90;;;;;;;8.28;78.43;97394.38;5028777;28;20410;-68
2024/02/01 11:01:58;;;;;;;25.53;19.27;;;;;;;8.45;78.38;97396.69;5026812;28;20821;-68
2024/02/01 11:04:23;;;;;;;24.83;19.57;;;;;;;8.34;78.16;97397.75;5028006;28;20442;-69
2024/02/01 11:06:49;;;;;;;24.00;17.97;;;;;;;8.27;78.83;97397.88;5020145;28;20204;-68
2024/02/01 11:09:22;;;;;;;26.53;19.17;;;;;;;8.25;79.52;97401.44;5013519;28;20267;-68
2024/02/01 11:11:52;;;;;;;27.33;18.93;;;;;;;8.26;79.27;97400.53;5027833;28;20410;-68
2024/02/01 11:14:26;;;;;;;29.30;19.10;;;;;;;8.32;79.13;97404.78;5027890;28;20430;-68
2024/02/01 11:16:56;;;;;;;25.57;19.07;;;;;;;8.31;79.22;97403.91;5026523;28;20540;-68
2024/02/01 11:19:24;;;;;;;25.10;18.97;;;;;;;8.40;79.13;97408.16;5028533;28;20909;-68
2024/02/01 11:21:52;;;;;;;27.37;19.37;;;;;;;8.37;80.00;97403.81;5026656;28;20434;-68
2024/02/01 11:24:22;;;;;;;47.20;21.50;;;;;;;8.39;80.07;97395.94;5027686;28;20430;-68
2024/02/01 11:26:54;;;;;;;65.50;23.37;;;;;;;8.61;79.11;97406.88;5020613;28;20986;-69
2024/02/01 11:29:23;;;;;;;51.03;21.10;;;;;;;8.69;78.84;97404.94;5019034;28;20462;-67
2024/02/01 11:31:56;;;;;;;38.53;18.63;;;;;;;8.72;79.16;97398.78;5028420;28;20555;-68
2024/02/01 11:34:23;;;;;;;28.67;18.80;;;;;;;8.71;78.86;97397.94;5027692;28;20426;-68
2024/02/01 11:36:49;;;;;;;28.37;19.50;;;;;;;8.74;79.40;97381.28;5016331;28;20495;-68
2024/02/01 11:39:15;;;;;;;31.17;18.30;;;;;;;9.10;79.09;97388.38;5025672;28;20453;-68
2024/02/01 11:41:47;;;;;;;26.50;19.97;;;;;;;9.32;77.93;97386.13;5015062;28;20513;-69
2024/02/01 11:44:18;;;;;;;26.13;17.73;;;;;;;9.38;77.52;97387.75;5017828;28;20795;-69
2024/02/01 11:46:47;;;;;;;40.60;19.57;;;;;;;9.43;76.88;97387.66;5014732;28;20454;-69
2024/02/01 11:49:16;;;;;;;51.47;20.87;;;;;;;9.38;76.98;97395.63;5007524;28;20423;-69
2024/02/01 11:51:46;;;;;;;145.80;26.40;;;;;;;9.39;76.84;97383.38;5020542;28;20445;-68
2024/02/01 11:54:12;;;;;;;22.03;16.50;;;;;;;9.42;77.18;97386.75;5027181;28;20561;-67
2024/02/01 11:56:39;;;;;;;21.87;16.47;;;;;;;9.46;77.42;97393.66;5027424;28;20532;-69
2024/02/01 11:59:04;;;;;;;20.67;16.00;;;;;;;9.52;77.29;97382.19;5018093;28;20973;-68
2024/02/01 12:01:33;;;;;;;24.30;15.50;;;;;;;9.63;77.19;97374.91;5025986;28;20422;-70
2024/02/01 12:03:59;;;;;;;15.37;13.77;;;;;;;9.70;76.28;97379.09;5026324;28;20333;-70
2024/02/01 12:06:24;;;;;;;27.97;14.77;;;;;;;9.70;76.88;97391.34;5026306;28;20470;-69
2024/02/01 12:08:50;;;;;;;26.50;15.17;;;;;;;9.73;76.57;97380.78;5019541;28;20238;-67
2024/02/01 12:11:16;;;;;;;47.80;18.30;;;;;;;9.69;76.72;97387.03;5015244;28;20187;-69